Time;durP1;ratioP1;P1;durP2;ratioP2;P2;SDS_P1;SDS_P2;PMS_P1;PMS_P2;Temp;Humidity;BMP_temperature;BMP_pressure;BME280_temperature;BME280_humidity;BME280_pressure;Samples;Min_cycle;Max_cycle;Signal;HPM_P1;HPM_P2
2023/12/13 00:01:46;;;;;;;11.50;6.10;;;;;;;3.07;90.82;95680.11;107971;1278;24302;-80
2023/12/13 00:04:15;;;;;;;7.30;4.70;;;;;;;3.06;90.67;95676.64;107999;1281;22749;-79
2023/12/13 00:06:43;;;;;;;10.30;6.10;;;;;;;3.03;90.60;95673.23;107994;1274;22577;-80
2023/12/13 00:09:12;;;;;;;10.80;6.50;;;;;;;2.97;90.50;95662.16;108042;1281;22589;-79
2023/12/13 00:11:41;;;;;;;10.60;6.20;;;;;;;2.96;90.68;95656.77;107976;1275;22534;-79
2023/12/13 00:14:09;;;;;;;11.50;6.50;;;;;;;2.94;90.67;95648.61;108006;1274;22656;-80
2023/12/13 00:16:38;;;;;;;11.80;7.70;;;;;;;2.91;90.63;95643.31;107991;1281;22547;-79
2023/12/13 00:19:06;;;;;;;11.50;7.60;;;;;;;2.88;90.62;95633.05;108015;1281;22537;-80
2023/12/13 00:21:35;;;;;;;11.70;6.90;;;;;;;2.86;90.61;95631.30;107993;1281;22541;-80
2023/12/13 00:24:04;;;;;;;10.50;7.10;;;;;;;2.84;90.76;95633.50;108036;1281;24316;-80
2023/12/13 00:26:32;;;;;;;14.20;6.60;;;;;;;2.82;90.65;95634.05;108016;1274;22539;-80
2023/12/13 00:29:01;;;;;;;11.60;6.50;;;;;;;2.79;90.76;95630.93;108033;1274;22530;-80
2023/12/13 00:31:29;;;;;;;10.90;6.50;;;;;;;2.77;90.80;95630.03;107989;1281;24224;-80
2023/12/13 00:33:58;;;;;;;8.20;5.60;;;;;;;2.73;90.70;95630.59;107998;1281;22547;-80
2023/12/13 00:36:26;;;;;;;9.80;6.20;;;;;;;2.71;90.90;95626.98;107988;1274;25551;-79
2023/12/13 00:38:55;;;;;;;6.00;4.20;;;;;;;2.76;90.93;95625.16;108008;1281;24249;-80
2023/12/13 00:41:25;;;;;;;10.70;6.90;;;;;;;2.76;90.92;95620.77;108005;1281;22570;-80
2023/12/13 00:43:53;;;;;;;14.10;6.40;;;;;;;2.74;90.80;95616.84;107992;1281;22530;-80
2023/12/13 00:46:22;;;;;;;12.00;7.00;;;;;;;2.73;90.85;95620.13;108030;1281;22560;-80
2023/12/13 00:48:50;;;;;;;;;;;;;;;2.71;90.90;95622.38;108049;1282;22519;-80
2023/12/13 00:51:20;;;;;;;11.00;6.00;;;;;;;2.71;91.00;95616.88;108047;1281;24224;-80
2023/12/13 00:53:48;;;;;;;10.80;6.30;;;;;;;2.73;91.03;95617.04;107977;1281;22544;-80
2023/12/13 00:56:19;;;;;;;7.60;4.50;;;;;;;2.76;90.97;95609.09;107958;1281;23512;-79
2023/12/13 00:58:47;;;;;;;10.10;5.90;;;;;;;2.76;90.93;95596.74;108010;1270;24678;-80
2023/12/13 01:01:18;;;;;;;7.40;5.70;;;;;;;2.76;90.99;95587.33;108006;1280;22537;-80
2023/12/13 01:03:48;;;;;;;11.90;6.40;;;;;;;2.80;91.08;95582.73;107991;1281;22533;-80
2023/12/13 01:06:19;;;;;;;12.70;6.60;;;;;;;2.80;90.92;95580.73;107975;1281;26414;-80
2023/12/13 01:08:47;;;;;;;8.70;5.50;;;;;;;2.77;90.79;95574.87;108011;1281;22564;-80
2023/12/13 01:11:16;;;;;;;8.70;5.30;;;;;;;2.70;90.63;95582.95;108007;1281;22559;-80
2023/12/13 01:13:47;;;;;;;6.80;4.00;;;;;;;2.63;90.64;95587.14;107954;1275;22543;-79
2023/12/13 01:16:16;;;;;;;9.10;5.90;;;;;;;2.57;90.77;95590.05;107923;1279;29490;-80
2023/12/13 01:18:46;;;;;;;10.80;5.80;;;;;;;2.54;90.82;95584.79;107974;1281;25406;-80
2023/12/13 01:21:15;;;;;;;9.70;5.80;;;;;;;2.51;90.79;95578.80;107979;1281;22541;-80
2023/12/13 01:23:43;;;;;;;9.60;5.90;;;;;;;2.48;90.94;95575.85;107964;1281;25391;-79
2023/12/13 01:26:17;;;;;;;10.30;5.60;;;;;;;2.45;90.99;95571.55;107978;1281;22575;-80
2023/12/13 01:28:45;;;;;;;10.60;6.00;;;;;;;2.41;91.04;95568.86;107948;1281;22578;-80
2023/12/13 01:31:13;;;;;;;10.80;6.10;;;;;;;2.42;91.17;95568.61;107969;1281;22709;-80
2023/12/13 01:33:45;;;;;;;10.40;6.00;;;;;;;2.43;91.12;95570.44;107971;1281;22887;-80
2023/12/13 01:36:16;;;;;;;9.40;5.40;;;;;;;2.41;91.03;95568.33;107972;1281;22537;-80
2023/12/13 01:38:47;;;;;;;11.30;6.00;;;;;;;2.33;91.04;95560.64;107981;1276;22604;-79
2023/12/13 01:41:18;;;;;;;10.80;6.10;;;;;;;2.26;91.14;95560.55;107964;1281;22557;-80
2023/12/13 01:43:47;;;;;;;9.90;5.60;;;;;;;2.22;91.18;95561.91;107951;1274;22537;-80
2023/12/13 01:46:18;;;;;;;10.90;6.40;;;;;;;2.20;91.32;95558.09;107960;1281;26355;-80
2023/12/13 01:48:46;;;;;;;10.70;6.00;;;;;;;2.20;91.44;95557.35;107984;1281;22530;-80
2023/12/13 01:51:15;;;;;;;11.10;6.60;;;;;;;2.24;91.64;95557.96;107946;1281;22541;-80
2023/12/13 01:53:46;;;;;;;10.00;6.00;;;;;;;2.22;91.51;95553.55;107983;1274;22543;-80
2023/12/13 01:56:15;;;;;;;10.90;5.70;;;;;;;2.19;91.73;95545.84;107949;1281;23261;-80
2023/12/13 01:58:51;;;;;;;10.30;5.80;;;;;;;2.17;91.60;95539.56;107951;1281;24404;-80
2023/12/13 02:01:19;;;;;;;9.70;5.40;;;;;;;2.18;91.80;95533.19;107974;1281;22527;-80
2023/12/13 02:03:48;;;;;;;9.70;5.50;;;;;;;2.17;91.81;95532.17;107989;1281;22517;-80
2023/12/13 02:06:19;;;;;;;11.40;5.20;;;;;;;2.16;91.84;95527.22;107961;1281;25352;-80
2023/12/13 02:08:48;;;;;;;11.60;7.00;;;;;;;2.13;91.85;95522.98;107968;1275;22544;-80
2023/12/13 02:11:18;;;;;;;7.20;5.40;;;;;;;2.13;91.91;95517.33;107991;1281;22567;-80
2023/12/13 02:13:48;;;;;;;11.00;6.70;;;;;;;2.13;92.01;95518.11;107974;1281;22537;-80
2023/12/13 02:16:18;;;;;;;13.10;6.30;;;;;;;2.14;92.10;95511.46;107965;1279;24905;-80
2023/12/13 02:18:47;;;;;;;10.40;5.70;;;;;;;2.15;92.00;95513.83;108007;1281;22556;-80
2023/12/13 02:21:15;;;;;;;9.50;5.60;;;;;;;2.15;92.06;95517.48;107969;1281;24313;-80
2023/12/13 02:23:43;;;;;;;8.90;5.30;;;;;;;2.14;92.11;95520.83;107925;1279;22548;-80
2023/12/13 02:26:13;;;;;;;11.50;5.90;;;;;;;2.14;92.29;95517.43;107952;1267;22499;-80
2023/12/13 02:28:42;;;;;;;11.70;6.30;;;;;;;2.08;92.30;95510.73;107950;1279;22549;-80
2023/12/13 02:31:11;;;;;;;9.80;6.00;;;;;;;2.03;92.32;95504.86;107952;1281;22534;-80
2023/12/13 02:33:43;;;;;;;8.10;5.90;;;;;;;2.02;92.55;95506.84;107956;1274;22563;-80
2023/12/13 02:36:11;;;;;;;10.80;6.70;;;;;;;2.02;92.63;95507.41;107936;1281;22887;-80
2023/12/13 02:38:41;;;;;;;9.70;5.90;;;;;;;2.01;92.67;95499.98;107962;1281;23317;-80
2023/12/13 02:41:13;;;;;;;10.10;6.50;;;;;;;2.02;92.78;95500.41;107955;1275;22537;-80
2023/12/13 02:43:41;;;;;;;10.30;5.80;;;;;;;2.03;92.84;95492.98;107972;1274;23327;-80
2023/12/13 02:46:09;;;;;;;7.10;4.30;;;;;;;2.02;92.72;95486.70;107968;1275;22560;-80
2023/12/13 02:48:38;;;;;;;10.70;6.60;;;;;;;2.00;92.83;95483.30;107992;1281;22538;-80
2023/12/13 02:51:08;;;;;;;12.60;6.30;;;;;;;2.00;92.99;95480.74;107961;1274;22542;-80
2023/12/13 02:53:36;;;;;;;10.90;6.00;;;;;;;2.00;92.96;95478.27;107988;1274;22537;-80
2023/12/13 02:56:06;;;;;;;11.50;6.40;;;;;;;1.98;92.90;95476.80;107977;1281;22560;-80
2023/12/13 02:58:34;;;;;;;11.20;7.20;;;;;;;1.92;92.67;95470.90;108060;1281;25305;-80
2023/12/13 03:01:03;;;;;;;13.60;8.40;;;;;;;1.88;92.81;95465.76;108021;1274;24337;-80
2023/12/13 03:03:31;;;;;;;10.10;6.80;;;;;;;1.84;92.85;95461.34;107987;1281;25275;-80
2023/12/13 03:05:59;;;;;;;8.00;4.50;;;;;;;1.79;92.91;95465.52;107941;1281;24238;-80
2023/12/13 03:08:28;;;;;;;9.80;6.10;;;;;;;1.78;93.05;95464.42;108011;1274;23568;-80
2023/12/13 03:10:57;;;;;;;10.00;6.20;;;;;;;1.77;93.18;95464.21;107867;1281;150237;-80
2023/12/13 03:13:26;;;;;;;9.80;6.40;;;;;;;1.73;93.12;95462.78;107979;1281;24265;-80
2023/12/13 03:15:54;;;;;;;9.20;5.30;;;;;;;1.72;93.25;95456.60;107973;1276;22754;-80
2023/12/13 03:18:25;;;;;;;7.50;5.20;;;;;;;1.71;93.37;95449.55;107983;1281;22537;-80
2023/12/13 03:20:54;;;;;;;9.70;6.10;;;;;;;1.73;93.58;95446.80;107975;1274;22559;-80
2023/12/13 03:23:22;;;;;;;;;;;;;;;1.73;93.51;95440.63;108004;1281;25412;-80
2023/12/13 03:25:54;;;;;;;11.50;7.10;;;;;;;1.74;93.78;95439.73;107956;1282;22534;-80
2023/12/13 03:28:23;;;;;;;13.10;6.20;;;;;;;1.75;93.74;95435.93;107967;1277;22534;-80
2023/12/13 03:30:51;;;;;;;10.50;6.40;;;;;;;1.76;93.81;95429.14;107983;1282;22598;-80
2023/12/13 03:33:20;;;;;;;10.30;5.60;;;;;;;1.78;93.94;95423.04;107976;1275;22529;-80
2023/12/13 03:35:48;;;;;;;7.00;5.10;;;;;;;1.81;93.91;95418.19;107956;1282;24226;-80
2023/12/13 03:38:19;;;;;;;10.50;6.70;;;;;;;1.85;93.98;95417.23;108018;1274;22543;-80
2023/12/13 03:40:48;;;;;;;9.90;5.70;;;;;;;1.89;94.09;95413.65;107977;1279;24234;-80
2023/12/13 03:43:19;;;;;;;8.70;5.30;;;;;;;1.91;94.16;95410.67;108054;1281;22782;-80
2023/12/13 03:45:47;;;;;;;9.80;6.20;;;;;;;1.93;94.09;95410.59;107961;1281;25634;-80
2023/12/13 03:48:15;;;;;;;9.10;5.10;;;;;;;1.93;94.06;95409.02;108009;1281;25365;-80
2023/12/13 03:50:44;;;;;;;9.90;5.90;;;;;;;1.94;94.16;95406.25;107950;1281;22670;-80
2023/12/13 03:53:13;;;;;;;9.70;6.20;;;;;;;1.96;94.23;95404.64;107965;1279;22559;-80
2023/12/13 03:55:50;;;;;;;10.90;5.60;;;;;;;1.96;94.11;95398.63;107987;1281;22537;-80
2023/12/13 03:58:18;;;;;;;9.70;6.10;;;;;;;1.94;94.18;95400.50;107964;1274;22581;-80
2023/12/13 04:00:49;;;;;;;10.00;6.60;;;;;;;1.93;94.18;95395.42;108021;1281;22538;-80
2023/12/13 04:03:19;;;;;;;9.30;5.90;;;;;;;1.93;94.21;95392.77;108007;1279;22529;-80
2023/12/13 04:05:48;;;;;;;10.80;6.90;;;;;;;1.93;94.29;95392.91;107949;1281;24243;-80
2023/12/13 04:08:17;;;;;;;9.70;6.20;;;;;;;1.92;94.29;95386.96;107993;1281;22942;-80
2023/12/13 04:10:48;;;;;;;11.20;7.00;;;;;;;1.90;94.29;95386.27;108010;1281;22533;-80
2023/12/13 04:13:16;;;;;;;13.40;7.50;;;;;;;1.87;94.14;95386.48;107966;1279;22572;-80
2023/12/13 04:15:45;;;;;;;12.00;7.20;;;;;;;1.86;94.28;95392.48;108006;1281;23466;-80
2023/12/13 04:18:15;;;;;;;10.30;6.20;;;;;;;1.83;94.39;95391.23;107970;1281;22582;-80
2023/12/13 04:20:46;;;;;;;12.70;7.80;;;;;;;1.82;94.41;95393.31;107974;1281;22533;-80
2023/12/13 04:23:14;;;;;;;15.30;8.40;;;;;;;1.83;94.36;95390.77;108006;1281;22554;-80
2023/12/13 04:25:43;;;;;;;13.90;8.20;;;;;;;1.79;94.50;95384.58;107974;1274;22531;-80
2023/12/13 04:28:11;;;;;;;16.90;8.90;;;;;;;1.78;94.69;95381.65;107959;1281;23001;-80
2023/12/13 04:30:39;;;;;;;13.80;8.30;;;;;;;1.78;94.69;95382.02;108029;1281;22539;-80
2023/12/13 04:33:07;;;;;;;13.30;8.00;;;;;;;1.80;94.89;95380.30;107958;1281;23395;-80
2023/12/13 04:35:36;;;;;;;15.90;10.60;;;;;;;1.80;94.80;95376.80;107958;1281;22536;-79
2023/12/13 04:38:04;;;;;;;17.20;9.80;;;;;;;1.80;94.96;95368.76;107984;1279;22551;-80
2023/12/13 04:40:32;;;;;;;14.80;9.30;;;;;;;1.78;94.87;95369.16;107994;1282;22551;-80
2023/12/13 04:43:01;;;;;;;15.90;10.10;;;;;;;1.78;94.84;95367.64;107995;1281;22561;-80
2023/12/13 04:45:30;;;;;;;14.20;10.00;;;;;;;1.75;94.79;95360.21;107990;1280;22540;-80
2023/12/13 04:47:58;;;;;;;16.20;10.40;;;;;;;1.73;95.03;95356.45;108004;1282;22535;-80
2023/12/13 04:50:27;;;;;;;19.50;10.70;;;;;;;1.68;94.88;95356.36;107975;1281;22551;-80
2023/12/13 04:52:55;;;;;;;14.80;9.80;;;;;;;1.63;94.88;95350.69;107972;1281;22531;-80
2023/12/13 04:55:24;;;;;;;16.10;10.90;;;;;;;1.60;94.93;95344.66;107941;1281;22553;-79
2023/12/13 04:57:52;;;;;;;14.70;10.00;;;;;;;1.58;95.28;95341.84;107985;1282;25359;-80
2023/12/13 05:00:21;;;;;;;16.60;10.80;;;;;;;1.61;95.56;95339.34;107973;1281;22530;-80
2023/12/13 05:02:49;;;;;;;16.20;10.70;;;;;;;1.63;95.71;95336.02;107952;1259;22883;-80
2023/12/13 05:05:18;;;;;;;16.70;9.90;;;;;;;1.65;95.81;95333.91;108000;1281;22610;-79
2023/12/13 05:07:46;;;;;;;18.90;8.80;;;;;;;1.67;95.88;95329.54;108014;1281;22543;-80
2023/12/13 05:10:15;;;;;;;17.40;10.80;;;;;;;1.68;95.94;95323.64;108008;1281;22553;-80
2023/12/13 05:12:44;;;;;;;17.10;10.10;;;;;;;1.66;95.90;95321.91;107960;1274;22587;-80
2023/12/13 05:15:15;;;;;;;15.30;9.90;;;;;;;1.65;95.89;95318.98;107985;1281;22546;-79
2023/12/13 05:17:46;;;;;;;15.90;10.30;;;;;;;1.65;96.04;95318.46;107988;1278;22532;-80
2023/12/13 05:20:17;;;;;;;13.20;6.90;;;;;;;1.64;96.25;95318.45;108011;1281;22541;-80
2023/12/13 05:22:45;;;;;;;15.80;10.20;;;;;;;1.64;96.38;95316.31;107986;1274;22556;-80
2023/12/13 05:25:16;;;;;;;11.70;7.10;;;;;;;1.61;96.56;95315.79;107992;1275;22581;-79
2023/12/13 05:27:45;;;;;;;15.80;10.00;;;;;;;1.59;96.77;95313.48;108017;1279;22041;-80
2023/12/13 05:30:13;;;;;;;;;;;;;;;1.58;97.01;95312.58;108061;1282;22539;-80
2023/12/13 05:32:42;;;;;;;21.00;13.00;;;;;;;1.56;97.05;95309.29;107987;1281;23424;-80
2023/12/13 05:35:10;;;;;;;19.80;14.20;;;;;;;1.53;97.21;95310.70;107950;1275;24625;-80
2023/12/13 05:37:41;;;;;;;18.80;13.00;;;;;;;1.50;97.26;95306.89;108001;1281;22544;-80
2023/12/13 05:40:12;;;;;;;20.00;13.20;;;;;;;1.50;97.47;95302.13;107984;1277;22549;-80
2023/12/13 05:42:41;;;;;;;19.60;13.80;;;;;;;1.50;97.43;95300.20;108009;1281;22545;-80
2023/12/13 05:45:10;;;;;;;20.60;13.20;;;;;;;1.53;97.80;95293.94;107962;1281;26576;-80
2023/12/13 05:47:39;;;;;;;20.20;12.50;;;;;;;1.57;98.03;95295.13;107975;1280;22539;-80
2023/12/13 05:50:09;;;;;;;16.80;10.70;;;;;;;1.62;98.16;95295.77;107882;1276;22545;-80
2023/12/13 05:52:38;;;;;;;;;;;;;;;1.66;98.30;95285.02;108016;1274;22538;-80
2023/12/13 05:55:08;;;;;;;16.80;11.30;;;;;;;1.68;98.43;95279.50;107932;1281;22524;-79
2023/12/13 05:57:36;;;;;;;17.10;11.30;;;;;;;1.68;98.50;95282.48;107985;1282;24229;-80
2023/12/13 06:00:08;;;;;;;16.80;11.10;;;;;;;1.70;98.54;95284.91;107977;1281;22552;-80
2023/12/13 06:02:36;;;;;;;17.90;11.30;;;;;;;1.74;98.68;95287.16;108097;1277;23071;-80
2023/12/13 06:05:05;;;;;;;16.60;11.40;;;;;;;1.76;98.81;95284.81;107991;1282;22624;-79
2023/12/13 06:07:35;;;;;;;18.40;12.00;;;;;;;1.77;98.89;95281.79;107979;1274;22527;-80
2023/12/13 06:10:06;;;;;;;16.40;12.20;;;;;;;1.81;99.01;95279.92;107999;1274;22536;-80
2023/12/13 06:12:34;;;;;;;17.80;12.80;;;;;;;1.83;99.02;95280.10;108011;1281;22580;-80
2023/12/13 06:15:02;;;;;;;22.70;14.50;;;;;;;1.79;98.89;95273.91;107961;1281;22540;-79
2023/12/13 06:17:31;;;;;;;25.30;17.90;;;;;;;1.72;98.57;95271.17;108025;1281;22544;-80
2023/12/13 06:20:00;;;;;;;27.70;19.40;;;;;;;1.68;98.58;95271.61;108003;1281;22556;-80
2023/12/13 06:22:28;;;;;;;27.40;19.10;;;;;;;1.68;98.85;95269.36;107983;1281;22704;-80
2023/12/13 06:24:56;;;;;;;25.20;17.90;;;;;;;1.68;98.83;95267.53;107965;1282;22549;-79
2023/12/13 06:27:27;;;;;;;25.80;18.00;;;;;;;1.65;98.74;95263.02;107976;1281;22655;-80
2023/12/13 06:29:56;;;;;;;24.90;18.30;;;;;;;1.60;98.70;95254.98;107963;1281;22591;-80
2023/12/13 06:32:24;;;;;;;28.70;18.70;;;;;;;1.58;98.72;95251.67;107981;1281;22536;-80
2023/12/13 06:34:54;;;;;;;17.30;12.20;;;;;;;1.55;98.83;95251.28;107961;1281;22567;-80
2023/12/13 06:37:23;;;;;;;24.80;16.70;;;;;;;1.53;98.92;95256.28;108019;1281;22554;-80
2023/12/13 06:39:51;;;;;;;28.50;18.30;;;;;;;1.52;99.19;95255.91;107964;1281;22527;-80
2023/12/13 06:42:20;;;;;;;24.00;16.70;;;;;;;1.53;99.20;95256.59;107963;1279;22501;-80
2023/12/13 06:44:48;;;;;;;22.80;16.40;;;;;;;1.51;99.16;95256.44;107982;1281;22533;-80
2023/12/13 06:47:16;;;;;;;23.20;15.80;;;;;;;1.50;99.14;95259.77;107984;1274;22543;-80
2023/12/13 06:49:45;;;;;;;15.80;11.80;;;;;;;1.49;99.32;95261.44;107973;1281;22603;-80
2023/12/13 06:52:14;;;;;;;21.40;15.80;;;;;;;1.51;99.54;95262.55;108000;1282;22542;-80
2023/12/13 06:54:42;;;;;;;19.70;14.50;;;;;;;1.54;99.53;95261.98;107957;1282;22595;-80
2023/12/13 06:57:12;;;;;;;21.20;14.80;;;;;;;1.56;99.67;95268.11;107981;1282;22584;-80
2023/12/13 06:59:39;;;;;;;;;;;;;;;1.56;99.64;95269.91;108066;1282;25325;-80
2023/12/13 07:02:08;;;;;;;20.20;15.10;;;;;;;1.57;99.80;95268.60;107960;1281;24250;-80
2023/12/13 07:04:36;;;;;;;22.20;15.60;;;;;;;1.57;99.83;95261.96;107970;1281;25238;-80
2023/12/13 07:07:05;;;;;;;23.10;15.50;;;;;;;1.60;99.96;95256.33;107990;1281;23856;-80
2023/12/13 07:09:33;;;;;;;20.00;13.90;;;;;;;1.61;99.96;95248.34;108005;1281;22548;-80
2023/12/13 07:12:03;;;;;;;23.90;16.40;;;;;;;1.61;99.89;95245.20;108001;1276;22539;-80
2023/12/13 07:14:31;;;;;;;23.10;16.10;;;;;;;1.62;99.97;95240.77;107958;1275;23206;-80
2023/12/13 07:16:59;;;;;;;23.20;16.60;;;;;;;1.63;99.98;95242.70;107984;1282;22537;-80
2023/12/13 07:19:28;;;;;;;21.90;15.50;;;;;;;1.66;100.00;95248.98;107998;1274;25283;-79
2023/12/13 07:21:56;;;;;;;22.30;16.10;;;;;;;1.69;100.00;95248.05;107986;1281;22570;-80
2023/12/13 07:24:27;;;;;;;21.50;15.40;;;;;;;1.71;100.00;95254.03;107944;1281;22533;-80
2023/12/13 07:26:56;;;;;;;24.60;17.20;;;;;;;1.70;100.00;95253.35;107982;1281;25372;-80
2023/12/13 07:29:24;;;;;;;20.70;15.60;;;;;;;1.72;100.00;95256.48;107992;1281;22623;-80
2023/12/13 07:31:55;;;;;;;14.10;10.90;;;;;;;1.74;100.00;95253.98;107958;1281;25379;-80
2023/12/13 07:34:23;;;;;;;21.20;15.00;;;;;;;1.77;100.00;95244.27;107996;1275;25443;-80
2023/12/13 07:36:53;;;;;;;22.20;16.10;;;;;;;1.76;100.00;95243.33;107949;1274;24271;-80
2023/12/13 07:39:23;;;;;;;24.00;16.50;;;;;;;1.74;100.00;95238.52;108013;1281;22536;-80
2023/12/13 07:41:51;;;;;;;24.00;16.90;;;;;;;1.74;100.00;95238.11;108092;1281;22537;-80
2023/12/13 07:44:24;;;;;;;22.90;17.10;;;;;;;1.73;100.00;95236.85;107966;1281;26368;-80
2023/12/13 07:46:52;;;;;;;23.40;17.00;;;;;;;1.73;100.00;95236.90;107934;1281;25281;-80
2023/12/13 07:49:21;;;;;;;26.30;18.30;;;;;;;1.76;100.00;95233.98;107994;1279;21815;-80
2023/12/13 07:51:50;;;;;;;25.80;17.60;;;;;;;1.81;100.00;95232.63;107994;1281;22529;-80
2023/12/13 07:54:19;;;;;;;23.00;16.60;;;;;;;1.83;100.00;95232.79;107960;1281;22615;-80
2023/12/13 07:56:50;;;;;;;23.60;17.90;;;;;;;1.86;100.00;95233.34;107955;1275;22533;-80
2023/12/13 07:59:19;;;;;;;22.70;15.40;;;;;;;1.90;100.00;95231.67;107978;1281;22583;-80
2023/12/13 08:01:47;;;;;;;22.50;16.30;;;;;;;1.93;100.00;95233.30;107997;1275;22526;-82
2023/12/13 08:04:16;;;;;;;24.20;17.60;;;;;;;1.93;100.00;95238.16;107971;1274;22656;-80
2023/12/13 08:06:47;;;;;;;23.10;17.90;;;;;;;1.94;100.00;95235.96;108125;1279;22545;-81
2023/12/13 08:09:19;;;;;;;24.40;18.80;;;;;;;1.96;100.00;95230.01;108070;1275;22575;-81
2023/12/13 08:11:47;;;;;;;24.50;17.40;;;;;;;1.96;100.00;95223.44;108150;1282;25293;-80
2023/12/13 08:14:18;;;;;;;19.10;14.20;;;;;;;2.00;100.00;95216.60;108056;1282;22553;-81
2023/12/13 08:16:48;;;;;;;21.20;16.40;;;;;;;2.01;100.00;95214.73;108074;1280;23927;-81
2023/12/13 08:19:19;;;;;;;19.50;14.40;;;;;;;2.01;100.00;95211.79;108094;1281;22585;-81
2023/12/13 08:21:49;;;;;;;19.60;13.60;;;;;;;2.04;100.00;95210.91;108064;1282;22621;-81
2023/12/13 08:24:18;;;;;;;20.40;14.90;;;;;;;2.06;100.00;95207.14;108008;1282;22643;-81
2023/12/13 08:26:48;;;;;;;20.10;14.20;;;;;;;2.08;100.00;95203.95;107988;1274;26927;-81
2023/12/13 08:29:16;;;;;;;19.60;14.90;;;;;;;2.10;100.00;95207.88;107994;1281;22558;-81
2023/12/13 08:31:45;;;;;;;19.40;15.60;;;;;;;2.13;100.00;95209.41;108015;1274;22682;-81
2023/12/13 08:34:15;;;;;;;21.20;15.80;;;;;;;2.16;100.00;95200.79;108010;1281;22526;-81
2023/12/13 08:36:45;;;;;;;20.80;15.10;;;;;;;2.20;100.00;95198.54;107933;1280;23801;-80
2023/12/13 08:39:16;;;;;;;18.10;13.50;;;;;;;2.26;100.00;95196.00;108016;1282;22547;-81
2023/12/13 08:41:50;;;;;;;21.40;15.80;;;;;;;2.27;100.00;95195.32;107982;1280;22536;-81
2023/12/13 08:44:19;;;;;;;19.10;14.10;;;;;;;2.29;100.00;95192.55;108017;1282;24194;-81
2023/12/13 08:46:49;;;;;;;18.30;9.80;;;;;;;2.33;100.00;95194.84;107975;1274;24741;-81
2023/12/13 08:49:19;;;;;;;21.00;14.10;;;;;;;2.34;100.00;95187.67;107984;1282;22644;-81
2023/12/13 08:51:49;;;;;;;18.50;13.70;;;;;;;2.35;100.00;95176.58;107975;1282;22556;-81
2023/12/13 08:54:18;;;;;;;18.80;13.40;;;;;;;2.38;100.00;95178.00;108008;1280;25256;-81
2023/12/13 08:56:48;;;;;;;19.10;12.80;;;;;;;2.39;100.00;95187.05;107970;1281;23377;-80
2023/12/13 08:59:18;;;;;;;17.30;13.20;;;;;;;2.43;100.00;95187.75;107973;1275;22533;-80
2023/12/13 09:01:47;;;;;;;17.30;12.60;;;;;;;2.47;100.00;95179.05;107949;1282;22526;-81
2023/12/13 09:04:15;;;;;;;13.80;10.20;;;;;;;2.47;100.00;95177.75;107966;1280;22528;-81
2023/12/13 09:06:47;;;;;;;20.90;13.90;;;;;;;2.50;100.00;95177.64;107988;1281;22543;-80
2023/12/13 09:09:16;;;;;;;20.10;14.20;;;;;;;2.52;100.00;95169.89;107999;1282;22537;-81
2023/12/13 09:11:46;;;;;;;18.60;13.00;;;;;;;2.55;100.00;95161.43;107989;1282;22568;-81
2023/12/13 09:14:14;;;;;;;17.20;12.60;;;;;;;2.56;100.00;95159.60;107986;1275;22537;-81
2023/12/13 09:16:42;;;;;;;16.30;12.00;;;;;;;2.54;100.00;95162.42;107980;1282;22538;-81
2023/12/13 09:19:11;;;;;;;19.00;14.20;;;;;;;2.50;100.00;95151.00;107983;1274;25350;-81
2023/12/13 09:21:40;;;;;;;18.60;13.60;;;;;;;2.48;100.00;95141.34;107972;1282;21866;-81
2023/12/13 09:24:12;;;;;;;18.70;14.70;;;;;;;2.48;100.00;95142.85;107964;1282;24238;-81
2023/12/13 09:26:40;;;;;;;18.70;13.20;;;;;;;2.49;100.00;95148.23;108013;1282;22566;-81
2023/12/13 09:29:10;;;;;;;18.90;13.70;;;;;;;2.52;100.00;95164.09;107979;1282;22545;-81
2023/12/13 09:31:41;;;;;;;17.80;13.00;;;;;;;2.56;100.00;95168.91;107992;1275;22586;-81
2023/12/13 09:34:10;;;;;;;18.10;13.50;;;;;;;2.59;100.00;95165.14;108009;1282;24371;-81
2023/12/13 09:36:39;;;;;;;17.40;12.20;;;;;;;2.61;100.00;95158.65;107975;1275;22574;-81
2023/12/13 09:39:06;;;;;;;;;;;;;;;2.61;100.00;95154.88;107998;1282;22514;-81
2023/12/13 09:41:43;;;;;;;17.00;12.10;;;;;;;2.65;100.00;95155.23;107973;1282;22532;-81
2023/12/13 09:44:15;;;;;;;17.60;12.50;;;;;;;2.70;100.00;95162.46;108038;1279;22531;-81
2023/12/13 09:46:44;;;;;;;17.60;11.50;;;;;;;2.73;100.00;95166.54;108029;1281;22540;-81
2023/12/13 09:49:14;;;;;;;11.40;8.10;;;;;;;2.75;100.00;95162.66;107995;1282;22547;-80
2023/12/13 09:51:44;;;;;;;6.60;4.00;;;;;;;2.80;100.00;95162.39;107974;1275;22540;-80
2023/12/13 09:54:13;;;;;;;6.90;3.90;;;;;;;2.89;100.00;95161.38;107986;1277;22650;-80
2023/12/13 09:56:45;;;;;;;7.50;3.70;;;;;;;2.97;100.00;95149.70;107950;1275;22532;-80
2023/12/13 09:59:16;;;;;;;4.90;3.20;;;;;;;3.03;100.00;95148.99;108009;1282;22587;-80
2023/12/13 10:01:44;;;;;;;5.60;2.90;;;;;;;3.05;100.00;95149.10;107975;1282;22533;-80
2023/12/13 10:04:15;;;;;;;7.30;4.20;;;;;;;3.05;100.00;95151.08;107991;1274;22659;-80
2023/12/13 10:06:45;;;;;;;4.50;3.00;;;;;;;3.10;100.00;95144.53;108024;1279;28240;-80
2023/12/13 10:09:19;;;;;;;6.20;3.80;;;;;;;3.16;100.00;95143.35;108001;1275;25594;-80
2023/12/13 10:11:48;;;;;;;6.60;4.00;;;;;;;3.20;100.00;95140.82;107964;1282;25249;-80
2023/12/13 10:14:16;;;;;;;8.30;4.90;;;;;;;3.21;100.00;95140.02;108005;1282;22563;-80
2023/12/13 10:16:45;;;;;;;7.80;5.60;;;;;;;3.20;100.00;95141.77;107982;1282;22520;-80
2023/12/13 10:19:14;;;;;;;10.50;5.80;;;;;;;3.21;100.00;95138.88;107975;1281;22551;-80
2023/12/13 10:21:43;;;;;;;6.30;4.30;;;;;;;3.21;100.00;95143.69;107958;1278;22742;-80
2023/12/13 10:24:14;;;;;;;4.30;3.40;;;;;;;3.21;100.00;95141.70;107959;1281;22601;-80
2023/12/13 10:26:46;;;;;;;5.60;3.50;;;;;;;3.23;100.00;95139.55;108090;1277;22568;-80
2023/12/13 10:29:14;;;;;;;6.10;4.20;;;;;;;3.24;100.00;95136.90;108128;1280;22553;-80
2023/12/13 10:31:46;;;;;;;9.20;5.60;;;;;;;3.24;100.00;95133.76;108083;1281;22583;-80
2023/12/13 10:34:15;;;;;;;6.70;4.90;;;;;;;3.24;100.00;95126.42;108094;1282;22861;-80
2023/12/13 10:36:44;;;;;;;10.30;7.30;;;;;;;3.23;100.00;95123.68;107972;1276;26519;-80
2023/12/13 10:39:16;;;;;;;8.10;5.30;;;;;;;3.22;100.00;95120.80;107961;1282;26489;-80
2023/12/13 10:41:47;;;;;;;9.00;6.20;;;;;;;3.21;100.00;95123.23;108011;1282;24268;-80
2023/12/13 10:44:17;;;;;;;10.90;6.70;;;;;;;3.18;100.00;95122.88;107968;1282;22553;-80
2023/12/13 10:46:46;;;;;;;9.50;7.10;;;;;;;3.18;100.00;95121.20;107990;1281;25116;-80
2023/12/13 10:49:16;;;;;;;9.90;6.90;;;;;;;3.19;100.00;95121.98;107964;1281;22663;-80
2023/12/13 10:51:47;;;;;;;11.60;8.30;;;;;;;3.19;100.00;95120.72;107971;1282;22534;-80
2023/12/13 10:54:16;;;;;;;12.50;8.10;;;;;;;3.19;100.00;95117.83;107995;1282;22545;-80
2023/12/13 10:56:46;;;;;;;11.10;7.80;;;;;;;3.18;100.00;95114.02;107957;1275;22531;-80
2023/12/13 10:59:15;;;;;;;13.20;9.70;;;;;;;3.18;100.00;95113.17;107960;1281;22552;-80
2023/12/13 11:01:45;;;;;;;;;;;;;;;3.19;100.00;95113.02;107998;1282;22525;-80
2023/12/13 11:04:17;;;;;;;10.20;7.20;;;;;;;3.21;100.00;95108.08;107953;1281;22552;-80
2023/12/13 11:06:47;;;;;;;12.90;9.30;;;;;;;3.25;100.00;95106.41;107962;1282;22539;-80
2023/12/13 11:09:17;;;;;;;11.60;8.50;;;;;;;3.26;100.00;95104.67;108017;1282;24403;-81
2023/12/13 11:11:49;;;;;;;10.00;7.00;;;;;;;3.28;100.00;95099.38;107972;1281;23435;-80
2023/12/13 11:14:20;;;;;;;14.80;8.80;;;;;;;3.28;100.00;95092.46;107981;1281;22543;-80
2023/12/13 11:16:49;;;;;;;16.70;11.70;;;;;;;3.21;100.00;95091.53;107944;1281;22571;-80
2023/12/13 11:19:22;;;;;;;16.80;12.10;;;;;;;3.18;100.00;95090.77;108010;1281;22549;-80
2023/12/13 11:21:54;;;;;;;14.50;9.00;;;;;;;3.17;100.00;95086.84;108045;1281;25447;-80
2023/12/13 11:24:28;;;;;;;14.20;10.70;;;;;;;3.14;100.00;95088.59;107980;1275;24246;-80
2023/12/13 11:26:58;;;;;;;17.00;9.30;;;;;;;3.15;100.00;95082.35;107971;1279;22536;-80
2023/12/13 11:29:33;;;;;;;17.20;12.10;;;;;;;3.18;100.00;95071.80;108040;1281;22603;-80
2023/12/13 11:32:03;;;;;;;14.50;9.50;;;;;;;3.22;100.00;95069.37;107988;1282;22555;-80